Terminal Aerodrome Forecast
Issued by NWS Memphis, TN

Home | Current Version | Previous Version | Text Only | Print | Product List | Glossary On
Versions: 1 2 3 4 5 6 7 8 9 10 11 12 13 14 15
000
FTUS44 KMEG 220540
TAFMKL
TAF
KMKL 220540Z 2206/2306 12003KT P6SM SCT250
     FM220800 14006KT P6SM SCT015 BKN100
     FM221100 16006KT 6SM BR OVC012
     FM221700 16010G17KT P6SM VCSH BKN015 OVC025
     FM222100 17009KT 6SM -SHRA BKN009 OVC015
     FM230400 22010KT P6SM VCSH BKN015 OVC050=

USA.gov is the U.S. government's official web portal to all federal, state and local government web resources and services.